Flight Track Log - Related Links

Times and Time Zones

All times are in EDT time to prevent confusion due to time zone crossing. See the LOT396 flight status page for this flight to view local times or setup timezone preferences in your user account.

Time Position Orientation Groundspeed Altitude Reporting Facility
EDT Latitude Longitude Course Direction KTS MPH feet Rate Location/Type
Mon 11:02:00 AM 51.1836 14.1691 70° East  Level Estimated
Mon 11:03:00 AM 51.2096 14.3169 74° East  Level Estimated
Mon 11:04:00 AM 51.2355 14.4649 74° East  Level Estimated
Mon 11:05:00 AM 51.2612 14.6130 74° East  Level Estimated
Mon 11:06:00 AM 51.2867 14.7613 75° East  Level Estimated
Mon 11:07:00 AM 51.3120 14.9097 75° East  Level Estimated
Mon 11:08:00 AM 51.3371 15.0584 75° East  Level Estimated
Mon 11:09:00 AM 51.3620 15.2072 75° East  Level Estimated
Mon 11:10:00 AM 51.3867 15.3561 75° East  Level Estimated
Mon 11:11:00 AM 51.4113 15.5052 75° East  Level Estimated
Mon 11:12:00 AM 51.4357 15.6545 75° East  Level Estimated
Mon 11:13:00 AM 51.4598 15.8039 75° East  Level Estimated
Mon 11:14:00 AM 51.4838 15.9535 76° East  Level Estimated
Mon 11:15:00 AM 51.5076 16.1032 76° East  Level Estimated
Mon 11:16:00 AM 51.5312 16.2531 76° East  Level Estimated
Mon 11:17:00 AM 51.5546 16.4032 76° East  Level Estimated
Mon 11:18:00 AM 51.5778 16.5534 76° East  Level Estimated
Mon 11:19:00 AM 51.6008 16.7038 76° East  Level Estimated
Mon 11:20:00 AM 51.6237 16.8543 76° East  Level Estimated
Mon 11:21:00 AM 51.6463 17.0049 76° East  Level Estimated
Mon 11:22:00 AM 51.6688 17.1557 76° East  Level Estimated
Mon 11:23:00 AM 51.6910 17.3067 77° East  Level Estimated
Mon 11:24:00 AM 51.7131 17.4578 77° East  Level Estimated
Mon 11:25:00 AM 51.7350 17.6091 77° East  Level Estimated
Mon 11:26:00 AM 51.7566 17.7605 77° East  Level Estimated
Mon 11:27:00 AM 51.7781 17.9120 77° East  Level Estimated
Mon 11:28:00 AM 51.7994 18.0637 77° East  Level Estimated
Mon 11:29:00 AM 51.8205 18.2155 77° East  Level Estimated
Mon 11:30:00 AM 51.8414 18.3675 77° East  Level Estimated
Mon 11:31:00 AM 51.8620 18.5196 78° East  Level Estimated
Mon 11:32:00 AM 51.8825 18.6719 78° East  Level Estimated
Mon 11:33:00 AM 51.9029 18.8242 78° East  Level Estimated
Mon 11:34:00 AM 51.9230 18.9768 78° East  Level Estimated
Mon 11:35:00 AM 51.9429 19.1294 78° East  Level Estimated
Mon 11:36:00 AM 51.9626 19.2822 78° East  Level Estimated
Mon 11:37:00 AM 51.9821 19.4352 78° East  Level Estimated
Mon 11:38:00 AM 52.0014 19.5882 78° East  Level Estimated
Mon 11:39:00 AM 52.0205 19.7414 78° East  Level Estimated
Mon 11:40:00 AM 52.0394 19.8948 79° East  Level Estimated
Mon 11:41:00 AM 52.0582 20.0482 79° East  Level Estimated
Mon 11:42:00 AM 52.0767 20.2018 79° East  Level Estimated
Mon 11:43:00 AM 52.0950 20.3555 79° East  Level Estimated
Mon 11:44:00 AM 52.1131 20.5094 79° East  Level Estimated
Mon 11:45:00 AM 52.1310 20.6633 79° East  Level Estimated
Mon 11:46:00 AM 52.1487 20.8174 79° East  Level Estimated
Mon 11:47:00 AM 52.1657 20.9671 79° East  Level Estimated
Mon 11:48:00 AM 52.1657 20.9671 90° East  Level Estimated
Mon 11:49:00 AM 52.1657 20.9671 90° East  Level Estimated
Mon 11:50:00 AM 52.1657 20.9671 90° East  Level Estimated
Mon 11:51:00 AM 52.1657 20.9671 90° East  Level Estimated
Mon 11:52:00 AM 52.1657 20.9671 90° East  Level Estimated
Mon 11:53:00 AM 52.1657 20.9671 90° East  Level Estimated
Mon 11:54:00 AM 52.1657 20.9671 90° East  Level Estimated
Mon 11:55:00 AM 52.1657 20.9671 90° East  Level Estimated
Mon 11:56:00 AM 52.1657 20.9671 90° East  Level Estimated
Mon 11:57:00 AM 52.1657 20.9671 90° East  Level Estimated
Mon 11:58:00 AM 52.1657 20.9671 90° East  Level Estimated

Login

Don't have an account? Register now (free) for customized features, flight alerts, and more!